Flugwetter Haslital by BIRDWING.ch
alle Angaben ohne Gewähr
code & design by arbyte.ch


Planplatten 2245m
22.05.19  10:301|5  OSO2.7°C99%
22.05.19  10:153|8  OSO1.8°C99%
22.05.19  10:002|7  SO2.0°C99%
22.05.19  09:302|5  OSO1.1°C98%
22.05.19  09:003|4  ONO0.4°C100%
➜ Windstation Planplatten

Meiringen 589m
22.05.19  10:303|7  OSO14.2°C78%
22.05.19  10:203|7  O13.2°C78%
22.05.19  10:105|9  O12.4°C75%
22.05.19  09:503|4  OSO11.5°C85%
22.05.19  09:301|4  SO11.0°C86%

Brienz 567m
22.05.19  10:304|8  W
22.05.19  10:203|9  ONO
22.05.19  10:105|9  O
22.05.19  09:503|7  ONO
22.05.19  09:304|8  ONO

Gütsch ob Andermatt 2283m
22.05.19  10:307|14  N0.9°C92%
22.05.19  10:208|15  NNO1.2°C84%
22.05.19  10:109|16  NNO0.9°C90%
22.05.19  09:5012|18  NNO0.4°C96%
22.05.19  09:3014|23  N0.3°C95%

Höhematte Metropole 566m
22.05.19  10:3814|16  WSW13.5°C67%
22.05.19  10:3412|15  SW13.8°C70%
22.05.19  10:2812|16  WSW13.7°C71%
22.05.19  10:1812|15  SW14.0°C68%
22.05.19  10:087|9  SSW16.3°C63%

Niederhorn 1950m
22.05.19  10:380|0  SO6.0°C91%
22.05.19  10:340|4  SO5.4°C92%
22.05.19  10:281|4  SO5.8°C92%
22.05.19  10:180|8  SO6.2°C94%
22.05.19  10:085|9  SO4.6°C92%

. . . . . . . . .

Bänzlauistock 2528m
22.05.19  10:303|9  W
22.05.19  10:000|0  N
22.05.19  09:300|0  N
22.05.19  09:004|6  NNW
22.05.19  08:305|6  NNW

Sidelhorn 2733m
22.05.19  10:3019|27  N
22.05.19  10:0019|27  N
22.05.19  09:3023|35  N
22.05.19  09:0028|36  N
22.05.19  08:3027|34  N

Brienzer Rothorn 2348m
22.05.19  10:301|10  SSW
22.05.19  10:003|8  SSO
22.05.19  09:302|8  SSO
22.05.19  09:001|6  NO
22.05.19  08:300|0  N

Altdorf 438m
22.05.19  10:301|5  NW12.1°C87%
22.05.19  10:202|5  N12.1°C87%
22.05.19  10:102|4  NNO11.9°C87%
22.05.19  09:503|5  N11.9°C91%
22.05.19  09:301|2  W11.7°C90%

Chasseral 1599m
22.05.19  10:3035|39  NNW6.0°C82%
22.05.19  10:2035|41  NNW5.1°C80%
22.05.19  10:1035|41  NNW4.9°C83%
22.05.19  09:5034|41  NNW5.3°C84%
22.05.19  09:3033|39  NNW4.9°C81%

Eggishorn 2893m
22.05.19  10:303|10  SO-2.5°C100%
22.05.19  10:204|8  NNO-3.0°C100%
22.05.19  10:103|8  NNO-2.9°C93%
22.05.19  09:503|9  N-3.6°C100%
22.05.19  09:309|15  OSO-2.8°C100%

Giswil 471m
22.05.19  10:304|9  N13.9°C81%
22.05.19  10:205|9  ONO14.1°C81%
22.05.19  10:104|7  ONO13.7°C82%
22.05.19  09:503|5  NO12.7°C86%
22.05.19  09:303|5  NO12.7°C89%

Glarus 517m
22.05.19  10:300|2  O10.0°C96%
22.05.19  10:201|4  ONO9.9°C98%
22.05.19  10:100|0  N10.0°C98%
22.05.19  09:500|0  N10.0°C95%
22.05.19  09:304|5  NW10.0°C96%

Gornergrat 3129m
22.05.19  10:304|10  S-3.5°C85%
22.05.19  10:204|10  SSO-3.0°C80%
22.05.19  10:103|8  SSO-3.0°C78%
22.05.19  09:503|8  SSO-4.3°C79%
22.05.19  09:306|11  SO-3.4°C79%

Grimsel Hospiz 1980m
22.05.19  10:308|15  N2.8°C95%
22.05.19  10:206|12  N2.9°C95%
22.05.19  10:104|10  W3.0°C98%
22.05.19  09:508|13  NW2.0°C100%
22.05.19  09:309|14  NW2.7°C95%

Jungfraujoch 3580m
22.05.19  10:307|13  NW-6.4°C89%
22.05.19  10:206|14  NW-6.7°C89%
22.05.19  10:105|11  NW-6.9°C90%
22.05.19  09:508|16  NW-7.0°C89%
22.05.19  09:305|15  NW-6.8°C89%

Luzern 454m
22.05.19  10:303|9  WNW14.5°C64%
22.05.19  10:204|13  N13.5°C69%
22.05.19  10:104|8  NO13.8°C73%
22.05.19  09:502|5  SO13.7°C77%
22.05.19  09:301|4  WNW12.5°C86%

Le Moléson 1974m
22.05.19  10:3018|25  NNO3.5°C100%
22.05.19  10:2016|25  NNO4.1°C100%
22.05.19  10:1018|25  NNO4.0°C100%
22.05.19  09:5016|22  NNO3.3°C100%
22.05.19  09:3014|22  NNO4.0°C100%

Napf 1404m
22.05.19  10:307|12  NNW7.6°C69%
22.05.19  10:208|14  NNW8.3°C75%
22.05.19  10:108|14  NNW8.0°C80%
22.05.19  09:509|14  N7.3°C76%
22.05.19  09:308|17  NNW6.0°C79%

Säntis 2502m
22.05.19  10:3022|34  WNW-0.6°C96%
22.05.19  10:2013|29  W-0.9°C100%
22.05.19  10:107|21  W-0.7°C100%
22.05.19  09:5018|34  WSW-1.0°C100%
22.05.19  09:3024|39  WSW-0.9°C100%

Thun 570m
22.05.19  10:308|12  NW14.5°C70%
22.05.19  10:205|12  NW14.2°C74%
22.05.19  10:106|11  NNW14.0°C75%
22.05.19  09:504|9  WNW13.6°C78%
22.05.19  09:304|8  W12.7°C81%

Titlis 3040m
22.05.19  10:303|7  N-4.3°C98%
22.05.19  10:202|7  NNW-4.4°C97%
22.05.19  10:103|8  N-4.5°C98%
22.05.19  09:504|11  NNO-4.4°C98%
22.05.19  09:304|16  N-4.4°C100%


QNH Druckwerte vom 22.05.2019 10:30
Interlaken1019.2 hPa
Zürich (SMA)1019.5 hPa
Acquarossa / Comprovasco1015.1 hPa
Locarno/Monti1013.9 hPa
Genève-Cointrin1018.9 hPa

Δ Comprovasco - Interlaken in hPa
22.05.19  10:301015.1 - 1019.2 =-4.1
22.05.19  10:201015.0 - 1019.2 =-4.2
22.05.19  10:001015.0 - 1019.3 =-4.3
22.05.19  09:301015.0 - 1019.3 =-4.3
22.05.19  08:301015.3 - 1019.2 =-3.9

Δ Locarno - Zürich in hPa
22.05.19  10:301013.9 - 1019.5 =-5.6
22.05.19  10:201014.0 - 1019.6 =-5.6
22.05.19  10:001014.1 - 1019.6 =-5.5
22.05.19  09:301014.3 - 1019.6 =-5.3
22.05.19  08:301014.4 - 1019.4 =-5.0

Δ Genf - Bodensee in hPa
22.05.19  10:301018.9 - 1019.1 =-0.2
22.05.19  10:201018.9 - 1019.0 =-0.1
22.05.19  10:001019.0 - 1019.1 =-0.1
22.05.19  09:301019.1 - 1019.1 =0.0
22.05.19  08:301019.0 - 1018.9 =0.1

Temp Meiringen - Plami in °C/100m
22.05.19  10:3014.2 - 2.7 = 11.50.69
22.05.19  10:0012.6 - 1.3 = 11.30.68
22.05.19  09:3011.0 - 0.4 = 10.60.64

Temp Lehn - Niederhorn in °C/100m
22.05.19  10:3816.2 - 6.0 = 10.20.74
22.05.19  10:2415.1 - 5.7 = 9.40.68
22.05.19  10:0815.4 - 4.6 = 10.80.78

Temp Luzern - Pilatus in °C/100m
22.05.19  10:3014.5 - 2.3 = 12.20.74
22.05.19  10:0014.5 - 3.3 = 11.20.68
22.05.19  09:3012.5 - 1.9 = 10.60.64